Time;durP1;ratioP1;P1;durP2;ratioP2;P2;SDS_P1;SDS_P2;PMS_P1;PMS_P2;Temp;Humidity;BMP_temperature;BMP_pressure;BME280_temperature;BME280_humidity;BME280_pressure;Samples;Min_cycle;Max_cycle;Signal;HPM_P1;HPM_P2
2022/11/13 00:00:52;;;;;;;39.37;25.90;;;9.80;99.90;;;;;;5066253;28;20692;-73
2022/11/13 00:03:19;;;;;;;37.23;25.03;;;9.80;99.90;;;;;;5064471;28;20202;-73
2022/11/13 00:05:46;;;;;;;37.57;24.60;;;9.80;99.90;;;;;;5066056;28;20834;-72
2022/11/13 00:08:13;;;;;;;38.03;25.20;;;9.70;99.90;;;;;;5062200;28;20217;-74
2022/11/13 00:10:40;;;;;;;36.27;24.30;;;9.70;99.90;;;;;;5064081;28;20209;-73
2022/11/13 00:13:06;;;;;;;37.00;24.53;;;9.70;99.90;;;;;;5060374;28;20233;-75
2022/11/13 00:15:33;;;;;;;37.87;24.20;;;9.80;99.90;;;;;;5067488;28;20231;-71
2022/11/13 00:18:02;;;;;;;34.03;23.80;;;9.70;99.90;;;;;;5062866;28;20209;-73
2022/11/13 00:20:29;;;;;;;35.53;24.30;;;9.80;99.90;;;;;;5055983;28;20206;-72
2022/11/13 00:22:56;;;;;;;32.43;22.90;;;9.60;99.90;;;;;;5060138;28;20228;-73
2022/11/13 00:25:23;;;;;;;36.57;24.27;;;9.70;99.90;;;;;;5063707;28;20276;-72
2022/11/13 00:27:49;;;;;;;32.47;21.87;;;9.80;99.90;;;;;;5054159;28;20612;-75
2022/11/13 00:30:17;;;;;;;29.50;21.53;;;9.70;99.90;;;;;;5062967;28;20306;-73
2022/11/13 00:32:44;;;;;;;31.37;22.47;;;9.70;99.90;;;;;;5054513;28;20210;-74
2022/11/13 00:35:12;;;;;;;31.07;21.80;;;9.70;99.90;;;;;;5059682;28;20237;-74
2022/11/13 00:37:39;;;;;;;31.80;22.00;;;9.70;99.90;;;;;;5060517;28;20218;-74
2022/11/13 00:40:07;;;;;;;29.33;22.20;;;9.70;99.90;;;;;;5057642;28;20258;-75
2022/11/13 00:42:36;;;;;;;32.00;23.07;;;9.70;99.90;;;;;;5072332;28;20289;-74
2022/11/13 00:45:07;;;;;;;32.60;22.27;;;9.70;99.90;;;;;;5069265;28;20207;-75
2022/11/13 00:47:35;;;;;;;30.53;20.70;;;9.70;99.90;;;;;;5054015;28;20762;-75
2022/11/13 00:50:01;;;;;;;30.63;21.50;;;9.60;99.90;;;;;;5051593;28;20205;-77
2022/11/13 00:52:31;;;;;;;31.10;21.87;;;9.70;99.90;;;;;;5063225;28;20211;-74
2022/11/13 00:54:57;;;;;;;31.87;21.93;;;9.70;99.90;;;;;;5072259;28;20237;-74
2022/11/13 00:57:24;;;;;;;32.07;21.83;;;9.70;99.90;;;;;;5062166;28;20280;-76
2022/11/13 00:59:51;;;;;;;30.97;21.50;;;9.70;99.90;;;;;;5059598;28;20237;-73
2022/11/13 01:02:18;;;;;;;30.17;20.90;;;9.70;99.90;;;;;;5058654;28;20205;-74
2022/11/13 01:04:45;;;;;;;30.67;21.07;;;9.70;99.90;;;;;;5048756;28;20202;-73
2022/11/13 01:07:12;;;;;;;29.57;21.33;;;9.70;99.90;;;;;;5056009;28;20339;-74
2022/11/13 01:09:40;;;;;;;31.07;21.30;;;9.40;99.90;;;;;;5053164;28;20214;-74
2022/11/13 01:12:07;;;;;;;31.17;21.23;;;9.70;99.90;;;;;;5066339;28;20859;-76
2022/11/13 01:14:34;;;;;;;33.17;21.90;;;9.70;99.90;;;;;;5062918;28;20197;-75
2022/11/13 01:17:01;;;;;;;31.43;21.23;;;9.70;99.90;;;;;;5069669;28;20205;-73
2022/11/13 01:19:28;;;;;;;29.57;20.70;;;9.70;99.90;;;;;;5067480;28;20205;-75
2022/11/13 01:21:55;;;;;;;33.77;21.53;;;9.70;99.90;;;;;;5056577;28;20206;-74
2022/11/13 01:24:21;;;;;;;31.73;21.10;;;9.70;99.90;;;;;;5072037;28;20654;-75
2022/11/13 01:26:50;;;;;;;32.03;21.40;;;9.70;99.90;;;;;;5061262;28;20210;-74
2022/11/13 01:29:16;;;;;;;32.53;21.47;;;9.80;99.90;;;;;;5052423;28;20228;-75
2022/11/13 01:31:43;;;;;;;31.77;21.50;;;9.70;99.90;;;;;;5052856;28;20206;-75
2022/11/13 01:34:10;;;;;;;29.60;20.87;;;9.70;99.90;;;;;;5053345;28;20205;-74
2022/11/13 01:36:37;;;;;;;29.00;20.83;;;9.70;99.90;;;;;;5052952;28;20218;-75
2022/11/13 01:39:04;;;;;;;31.43;20.00;;;9.70;99.90;;;;;;5053259;28;20242;-75
2022/11/13 01:41:33;;;;;;;31.03;20.53;;;9.70;99.90;;;;;;5054764;28;20245;-75
2022/11/13 01:44:02;;;;;;;31.20;20.70;;;9.70;99.90;;;;;;5055832;28;20271;-73
2022/11/13 01:46:31;;;;;;;32.10;21.03;;;9.70;99.90;;;;;;5055432;28;20193;-71
2022/11/13 01:49:04;;;;;;;30.90;20.80;;;9.70;99.90;;;;;;5050416;28;20217;-72
2022/11/13 01:51:34;;;;;;;31.17;20.70;;;9.80;99.90;;;;;;5052860;28;21045;-73
2022/11/13 01:54:03;;;;;;;31.60;21.30;;;9.80;99.90;;;;;;5053019;28;20213;-73
2022/11/13 01:56:30;;;;;;;29.20;20.23;;;9.80;99.90;;;;;;5059993;28;20218;-75
2022/11/13 01:59:03;;;;;;;29.77;20.00;;;9.70;99.90;;;;;;5053010;28;20308;-73
2022/11/13 02:01:32;;;;;;;30.20;20.70;;;9.70;99.90;;;;;;5053314;28;20202;-73
2022/11/13 02:03:59;;;;;;;30.63;19.90;;;9.70;99.90;;;;;;5053215;28;20259;-74
2022/11/13 02:06:29;;;;;;;28.77;19.43;;;9.70;99.90;;;;;;5051905;28;20265;-74
2022/11/13 02:08:56;;;;;;;31.07;19.77;;;9.70;99.90;;;;;;5053102;28;20671;-74
2022/11/13 02:11:22;;;;;;;29.33;18.73;;;9.70;99.90;;;;;;5052010;28;20217;-76
2022/11/13 02:13:50;;;;;;;29.47;19.67;;;9.70;99.90;;;;;;5053572;28;20238;-75
2022/11/13 02:16:18;;;;;;;26.70;19.20;;;9.70;99.90;;;;;;5051505;28;20237;-75
2022/11/13 02:18:46;;;;;;;29.57;19.47;;;9.70;99.90;;;;;;5049474;28;20213;-75
2022/11/13 02:21:27;;;;;;;29.43;19.57;;;9.70;99.90;;;;;;5052417;28;20218;-76
2022/11/13 02:24:01;;;;;;;27.80;18.70;;;9.70;99.90;;;;;;5050570;28;20208;-80
2022/11/13 02:26:30;;;;;;;24.93;17.97;;;9.90;99.90;;;;;;5058767;28;20700;-73
2022/11/13 02:28:57;;;;;;;26.57;18.33;;;9.80;99.90;;;;;;5050758;28;20206;-76
2022/11/13 02:31:24;;;;;;;26.00;17.37;;;9.80;99.90;;;;;;5055866;28;20232;-75
2022/11/13 02:33:51;;;;;;;24.47;17.47;;;9.80;99.90;;;;;;5057427;28;20206;-78
2022/11/13 02:36:21;;;;;;;24.83;17.43;;;9.80;99.90;;;;;;5057920;28;20241;-75
2022/11/13 02:38:49;;;;;;;24.67;17.47;;;9.70;99.90;;;;;;5054327;28;20217;-77
2022/11/13 02:41:16;;;;;;;26.47;18.43;;;9.70;99.90;;;;;;5056419;28;20216;-72
2022/11/13 02:43:45;;;;;;;25.43;18.07;;;9.70;99.90;;;;;;5053765;28;20206;-75
2022/11/13 02:46:12;;;;;;;24.80;16.83;;;9.80;99.90;;;;;;5052573;28;20229;-73
2022/11/13 02:48:38;;;;;;;27.77;17.77;;;9.70;99.90;;;;;;5052967;28;20288;-75
2022/11/13 02:51:05;;;;;;;24.50;17.57;;;9.70;99.90;;;;;;5054039;28;20269;-75
2022/11/13 02:53:33;;;;;;;28.00;18.17;;;9.70;99.90;;;;;;5052590;28;20676;-74
2022/11/13 02:56:00;;;;;;;27.43;18.13;;;9.70;99.90;;;;;;5052185;28;20312;-75
2022/11/13 02:58:29;;;;;;;26.17;17.53;;;9.70;99.90;;;;;;5047506;28;20296;-74
2022/11/13 03:00:57;;;;;;;27.33;17.87;;;9.90;99.90;;;;;;5051341;28;20230;-74
2022/11/13 03:03:24;;;;;;;25.77;17.37;;;9.70;99.90;;;;;;5049526;28;20206;-75
2022/11/13 03:05:51;;;;;;;27.17;17.63;;;9.70;99.90;;;;;;5050991;28;20204;-74
2022/11/13 03:08:18;;;;;;;25.00;17.70;;;9.80;99.90;;;;;;5054579;28;20221;-76
2022/11/13 03:10:45;;;;;;;27.20;18.07;;;9.80;99.90;;;;;;5050725;28;20212;-74
2022/11/13 03:13:12;;;;;;;25.13;16.97;;;9.80;99.90;;;;;;5050737;28;20616;-74
2022/11/13 03:15:39;;;;;;;28.23;17.70;;;9.80;99.90;;;;;;5049568;28;20218;-75
2022/11/13 03:18:07;;;;;;;26.10;17.23;;;9.80;99.90;;;;;;5047195;28;20221;-74
2022/11/13 03:20:37;;;;;;;29.07;18.23;;;9.80;99.90;;;;;;5050221;28;20202;-75
2022/11/13 03:23:04;;;;;;;26.93;18.17;;;9.80;99.90;;;;;;5053738;28;20365;-74
2022/11/13 03:25:31;;;;;;;30.47;18.63;;;9.80;99.90;;;;;;5050796;28;20509;-74
2022/11/13 03:27:58;;;;;;;30.53;19.13;;;9.80;99.90;;;;;;5062285;28;20209;-75
2022/11/13 03:30:26;;;;;;;26.57;18.07;;;9.80;99.90;;;;;;5053515;28;20216;-75
2022/11/13 03:32:53;;;;;;;28.00;18.93;;;9.80;99.90;;;;;;5050741;28;20232;-75
2022/11/13 03:35:22;;;;;;;30.30;19.67;;;9.80;99.90;;;;;;5054261;28;20540;-75
2022/11/13 03:37:49;;;;;;;27.80;19.43;;;9.80;99.90;;;;;;5054846;28;20205;-74
2022/11/13 03:40:16;;;;;;;31.17;19.30;;;9.70;99.90;;;;;;5048456;28;20224;-75
2022/11/13 03:42:43;;;;;;;31.33;18.83;;;9.80;99.90;;;;;;5050886;28;20296;-74
2022/11/13 03:45:10;;;;;;;28.43;18.07;;;9.80;99.90;;;;;;5050094;28;20206;-74
2022/11/13 03:47:37;;;;;;;29.80;19.30;;;9.80;99.90;;;;;;5050954;28;20216;-75
2022/11/13 03:50:05;;;;;;;29.43;18.97;;;9.80;99.90;;;;;;5056575;28;20202;-73
2022/11/13 03:52:33;;;;;;;29.10;18.43;;;9.80;99.90;;;;;;5049600;28;20596;-74
2022/11/13 03:55:00;;;;;;;31.10;19.03;;;9.80;99.90;;;;;;5050683;28;20292;-73
2022/11/13 03:57:27;;;;;;;31.00;19.77;;;9.80;99.90;;;;;;5050545;28;20230;-73
2022/11/13 03:59:53;;;;;;;29.37;18.70;;;9.80;99.90;;;;;;5059815;28;20245;-73
2022/11/13 04:02:20;;;;;;;27.37;18.37;;;9.80;99.90;;;;;;5052359;28;20206;-73
2022/11/13 04:04:47;;;;;;;24.77;16.77;;;9.80;99.90;;;;;;5053009;28;20210;-73
2022/11/13 04:07:14;;;;;;;28.80;18.63;;;9.70;99.90;;;;;;5051264;28;20611;-73
2022/11/13 04:09:43;;;;;;;25.37;17.30;;;9.70;99.90;;;;;;5041797;28;20617;-74
2022/11/13 04:12:10;;;;;;;28.17;18.70;;;9.70;99.90;;;;;;5051215;28;20234;-74
2022/11/13 04:14:37;;;;;;;28.27;18.53;;;9.70;99.90;;;;;;5052533;28;20671;-74
2022/11/13 04:17:04;;;;;;;27.83;18.00;;;9.70;99.90;;;;;;5051225;28;20245;-75
2022/11/13 04:19:32;;;;;;;25.63;17.73;;;9.70;99.90;;;;;;5049544;28;20209;-73
2022/11/13 04:21:59;;;;;;;24.93;16.97;;;9.70;99.90;;;;;;5060197;28;20214;-73
2022/11/13 04:24:26;;;;;;;25.87;17.37;;;9.60;99.90;;;;;;5054580;28;20216;-74
2022/11/13 04:26:55;;;;;;;30.00;18.13;;;9.70;99.90;;;;;;5055379;28;20202;-74
2022/11/13 04:29:22;;;;;;;27.83;18.27;;;9.60;99.90;;;;;;5057789;28;20216;-73
2022/11/13 04:31:49;;;;;;;30.23;19.13;;;9.60;99.90;;;;;;5055128;28;20218;-75
2022/11/13 04:34:16;;;;;;;32.37;19.53;;;9.60;99.90;;;;;;5055533;28;20233;-73
2022/11/13 04:36:43;;;;;;;30.30;18.67;;;9.60;99.90;;;;;;5054479;28;20682;-73
2022/11/13 04:39:10;;;;;;;31.13;18.77;;;9.60;99.90;;;;;;5057888;28;20540;-74
2022/11/13 04:44:22;;;;;;;30.47;19.30;;;9.60;99.90;;;;;;5057622;28;20201;-74
2022/11/13 04:46:49;;;;;;;33.50;19.27;;;9.60;99.90;;;;;;5042929;28;20213;-73
2022/11/13 04:49:15;;;;;;;29.57;19.03;;;9.60;99.90;;;;;;5064784;28;20208;-72
2022/11/13 04:51:42;;;;;;;29.73;18.47;;;9.60;99.90;;;;;;5058822;28;20237;-74
2022/11/13 04:54:09;;;;;;;31.77;18.97;;;9.60;99.90;;;;;;5055505;28;20224;-75
2022/11/13 04:56:36;;;;;;;30.17;18.93;;;9.60;99.90;;;;;;5056495;28;20225;-75
2022/11/13 04:59:03;;;;;;;31.00;19.27;;;9.70;99.90;;;;;;5054022;28;20188;-73
2022/11/13 05:01:31;;;;;;;30.43;18.60;;;9.60;99.90;;;;;;5055329;28;20219;-74
2022/11/13 05:03:58;;;;;;;32.77;19.17;;;9.60;99.90;;;;;;5054501;28;20252;-74
2022/11/13 05:06:25;;;;;;;31.03;18.53;;;9.60;99.90;;;;;;5053815;28;20194;-74
2022/11/13 05:08:51;;;;;;;31.13;19.07;;;9.70;99.90;;;;;;5053804;28;20210;-75
2022/11/13 05:11:18;;;;;;;34.17;19.30;;;9.70;99.90;;;;;;5054709;28;20198;-75
2022/11/13 05:13:45;;;;;;;35.47;18.83;;;9.60;99.90;;;;;;5054478;28;20320;-73
2022/11/13 05:16:14;;;;;;;33.30;19.43;;;9.60;99.90;;;;;;5054330;28;20264;-75
2022/11/13 05:18:42;;;;;;;34.97;19.63;;;9.60;99.90;;;;;;5056377;28;20615;-73
2022/11/13 05:21:09;;;;;;;31.43;18.83;;;9.70;99.90;;;;;;5066223;28;20244;-73
2022/11/13 05:23:36;;;;;;;29.90;18.53;;;9.60;99.90;;;;;;5054012;28;20559;-73
2022/11/13 05:26:05;;;;;;;32.50;19.20;;;9.70;99.90;;;;;;5054390;28;20289;-74
2022/11/13 05:28:32;;;;;;;30.33;18.47;;;9.70;99.90;;;;;;5056027;28;20202;-74
2022/11/13 05:31:07;;;;;;;32.13;18.67;;;9.70;99.90;;;;;;5048640;28;20222;-75
2022/11/13 05:33:34;;;;;;;29.90;18.33;;;9.70;99.90;;;;;;5054650;28;20209;-74
2022/11/13 05:36:04;;;;;;;29.43;17.87;;;9.70;99.90;;;;;;5054681;28;20222;-73
2022/11/13 05:38:31;;;;;;;30.67;18.20;;;9.70;99.90;;;;;;5054204;28;20293;-76
2022/11/13 05:41:04;;;;;;;29.27;18.20;;;9.70;99.90;;;;;;5061409;28;20216;-73
2022/11/13 05:43:34;;;;;;;25.67;16.50;;;9.70;99.90;;;;;;5042562;28;20204;-74
2022/11/13 05:46:02;;;;;;;28.93;17.40;;;9.70;99.90;;;;;;5052664;28;20540;-74
2022/11/13 05:48:29;;;;;;;27.70;16.40;;;9.70;99.90;;;;;;5048478;28;20671;-73
2022/11/13 05:51:03;;;;;;;28.07;17.23;;;9.70;99.90;;;;;;5053465;28;20266;-75
2022/11/13 05:53:30;;;;;;;32.30;17.33;;;9.70;99.90;;;;;;5052902;28;20201;-75
2022/11/13 05:56:00;;;;;;;28.50;17.40;;;9.70;99.90;;;;;;5051633;28;20206;-73
2022/11/13 05:58:28;;;;;;;28.90;18.27;;;9.70;99.90;;;;;;5054359;28;20209;-73
2022/11/13 06:01:04;;;;;;;27.27;17.87;;;9.70;99.90;;;;;;5046595;28;20226;-72
2022/11/13 06:03:33;;;;;;;27.40;17.27;;;9.70;99.90;;;;;;5050254;28;20201;-73
2022/11/13 06:06:01;;;;;;;30.43;17.30;;;9.70;99.90;;;;;;5060669;28;20206;-73
2022/11/13 06:08:29;;;;;;;28.17;17.83;;;9.60;99.90;;;;;;5051233;28;20518;-73
2022/11/13 06:10:59;;;;;;;29.70;19.07;;;9.60;99.90;;;;;;5052906;28;20202;-74
2022/11/13 06:13:26;;;;;;;29.47;18.20;;;9.70;99.90;;;;;;5053355;28;20234;-73
2022/11/13 06:15:59;;;;;;;27.70;17.83;;;9.70;99.90;;;;;;5053461;28;20581;-73
2022/11/13 06:18:26;;;;;;;30.93;19.00;;;9.70;99.90;;;;;;5052478;28;20284;-74
2022/11/13 06:20:54;;;;;;;27.53;17.57;;;9.70;99.90;;;;;;5048114;28;20213;-74
2022/11/13 06:23:22;;;;;;;27.03;18.37;;;9.70;99.90;;;;;;5049660;28;20232;-75
2022/11/13 06:25:49;;;;;;;29.20;18.30;;;9.70;99.90;;;;;;5053322;28;20232;-75
2022/11/13 06:28:16;;;;;;;28.70;17.87;;;9.80;99.90;;;;;;5058273;28;20201;-73
2022/11/13 06:30:43;;;;;;;31.50;17.87;;;9.70;99.90;;;;;;5060081;28;20220;-75
2022/11/13 06:33:10;;;;;;;32.87;19.20;;;9.80;99.90;;;;;;5054175;28;20206;-75
2022/11/13 06:35:37;;;;;;;32.90;19.53;;;9.90;99.90;;;;;;5052676;28;20238;-74
2022/11/13 06:38:04;;;;;;;32.57;19.63;;;9.80;99.90;;;;;;5047534;28;20322;-76
2022/11/13 06:40:32;;;;;;;30.60;18.17;;;9.80;99.90;;;;;;5042125;28;20224;-74
2022/11/13 06:42:59;;;;;;;28.13;18.10;;;9.80;99.90;;;;;;5052290;28;20214;-74
2022/11/13 06:45:27;;;;;;;26.03;16.60;;;9.80;99.90;;;;;;5052032;28;20772;-74
2022/11/13 06:47:55;;;;;;;28.30;16.23;;;9.90;99.90;;;;;;5053306;28;21931;-75
2022/11/13 06:50:22;;;;;;;26.50;15.73;;;9.80;99.90;;;;;;5052886;28;20257;-76
2022/11/13 06:52:49;;;;;;;27.03;16.57;;;9.80;99.90;;;;;;5051990;28;20670;-73
2022/11/13 06:55:16;;;;;;;27.33;15.70;;;9.80;99.90;;;;;;5052571;28;20764;-75
2022/11/13 06:57:44;;;;;;;22.47;13.77;;;9.80;99.90;;;;;;5054259;28;20236;-75
2022/11/13 07:00:12;;;;;;;19.27;13.43;;;9.80;99.90;;;;;;5056423;28;20225;-74
2022/11/13 07:02:39;;;;;;;20.07;13.50;;;9.80;99.90;;;;;;5053974;28;20307;-75
2022/11/13 07:05:06;;;;;;;21.53;12.83;;;9.80;99.90;;;;;;5055812;28;20235;-75
2022/11/13 07:07:33;;;;;;;21.17;13.27;;;9.80;99.90;;;;;;5054294;28;20261;-76
2022/11/13 07:10:00;;;;;;;21.43;12.93;;;9.90;99.90;;;;;;5053515;28;20206;-76
2022/11/13 07:12:28;;;;;;;23.03;14.10;;;9.90;99.90;;;;;;5053013;28;20275;-74
2022/11/13 07:14:57;;;;;;;22.57;14.70;;;9.90;99.90;;;;;;5054358;28;20289;-76
2022/11/13 07:17:24;;;;;;;21.80;14.60;;;9.90;99.90;;;;;;5053660;28;20659;-74
2022/11/13 07:19:51;;;;;;;24.63;14.90;;;9.90;99.90;;;;;;5054153;28;20296;-74
2022/11/13 07:22:18;;;;;;;22.20;13.93;;;9.90;99.90;;;;;;5052373;28;20202;-76
2022/11/13 07:24:45;;;;;;;21.40;13.87;;;10.00;99.90;;;;;;5052933;28;20263;-74
2022/11/13 07:27:11;;;;;;;20.83;14.60;;;10.00;99.90;;;;;;5066124;28;20205;-71
2022/11/13 07:29:38;;;;;;;23.03;15.07;;;10.00;99.90;;;;;;5055510;28;20202;-70
2022/11/13 07:32:07;;;;;;;21.20;14.07;;;10.00;99.90;;;;;;5051426;28;20711;-69
2022/11/13 07:34:33;;;;;;;20.47;14.23;;;10.00;99.90;;;;;;5056744;28;20590;-71
2022/11/13 07:37:00;;;;;;;20.17;12.67;;;10.00;99.90;;;;;;5055406;28;20229;-71
2022/11/13 07:39:27;;;;;;;17.10;11.67;;;10.00;99.90;;;;;;5046913;28;20210;-71
2022/11/13 07:41:54;;;;;;;18.30;11.77;;;10.00;99.90;;;;;;5049204;28;20214;-70
2022/11/13 07:44:21;;;;;;;20.23;12.97;;;10.00;99.90;;;;;;5052902;28;20212;-71
2022/11/13 07:46:47;;;;;;;18.30;12.43;;;10.00;99.90;;;;;;5056432;28;20293;-71
2022/11/13 07:49:16;;;;;;;17.53;12.00;;;10.00;99.90;;;;;;5060142;28;20210;-72
2022/11/13 07:51:43;;;;;;;16.93;11.60;;;10.00;99.90;;;;;;5063451;28;20213;-70
2022/11/13 07:54:10;;;;;;;17.20;11.70;;;10.00;99.90;;;;;;5060605;28;20408;-68
2022/11/13 07:56:37;;;;;;;19.70;11.93;;;10.00;99.90;;;;;;5042684;28;20233;-70
2022/11/13 07:59:03;;;;;;;18.70;12.77;;;10.00;99.90;;;;;;5055006;28;20213;-69
2022/11/13 08:01:30;;;;;;;19.87;11.90;;;10.10;99.90;;;;;;5047433;28;20211;-69
2022/11/13 08:03:57;;;;;;;17.87;12.77;;;10.20;99.90;;;;;;5052454;28;20209;-68
2022/11/13 08:06:26;;;;;;;19.67;13.17;;;10.10;99.90;;;;;;5057266;28;20228;-69
2022/11/13 08:08:54;;;;;;;18.23;13.77;;;10.20;99.90;;;;;;5051077;28;20210;-69
2022/11/13 08:11:21;;;;;;;17.83;12.53;;;10.20;99.90;;;;;;5055819;28;20237;-69
2022/11/13 08:13:47;;;;;;;20.27;12.63;;;10.30;99.90;;;;;;5058100;28;20257;-70
2022/11/13 08:16:14;;;;;;;18.57;12.60;;;10.30;99.90;;;;;;5058601;28;20216;-69
2022/11/13 08:18:41;;;;;;;17.77;12.10;;;10.30;99.90;;;;;;5058552;28;20714;-70
2022/11/13 08:21:08;;;;;;;16.73;10.90;;;10.30;99.90;;;;;;5062691;28;20238;-68
2022/11/13 08:23:36;;;;;;;16.47;10.63;;;10.30;99.90;;;;;;5054203;28;20206;-69
2022/11/13 08:26:05;;;;;;;14.63;10.10;;;10.40;99.90;;;;;;5060050;28;20262;-69
2022/11/13 08:28:32;;;;;;;16.67;10.57;;;10.40;99.90;;;;;;5061369;28;20212;-69
2022/11/13 08:30:58;;;;;;;16.73;10.30;;;10.40;99.90;;;;;;5052454;28;20604;-73
2022/11/13 08:33:25;;;;;;;13.67;9.70;;;10.40;99.90;;;;;;5057709;28;20259;-69
2022/11/13 08:35:54;;;;;;;14.40;10.47;;;10.50;99.90;;;;;;5054045;28;20836;-69
2022/11/13 08:38:21;;;;;;;15.27;10.23;;;10.50;99.90;;;;;;5055686;28;20221;-69
2022/11/13 08:40:49;;;;;;;14.77;9.93;;;10.50;99.90;;;;;;5054072;28;20240;-68
2022/11/13 08:43:16;;;;;;;13.63;9.20;;;10.60;99.90;;;;;;5054838;28;20213;-70
2022/11/13 08:45:45;;;;;;;13.60;9.97;;;10.60;99.90;;;;;;5054010;28;20691;-69
2022/11/13 08:48:13;;;;;;;15.27;10.03;;;10.60;99.90;;;;;;5051418;28;20208;-69
2022/11/13 08:50:40;;;;;;;15.97;10.90;;;10.60;99.90;;;;;;5052523;28;20205;-69
2022/11/13 08:53:07;;;;;;;15.67;10.27;;;10.70;99.90;;;;;;5051878;28;20214;-69
2022/11/13 08:55:34;;;;;;;16.40;9.83;;;10.70;99.90;;;;;;5045180;28;20293;-69
2022/11/13 08:58:04;;;;;;;14.93;10.17;;;10.70;99.90;;;;;;5052766;28;20689;-69
2022/11/13 09:00:32;;;;;;;14.47;9.63;;;10.80;99.90;;;;;;5054439;28;20234;-69
2022/11/13 09:03:00;;;;;;;14.23;9.40;;;10.70;99.90;;;;;;5053502;28;20612;-70
2022/11/13 09:05:27;;;;;;;14.83;10.07;;;10.70;99.90;;;;;;5052149;28;20217;-69
2022/11/13 09:07:57;;;;;;;14.60;9.43;;;10.70;99.90;;;;;;5064098;28;20292;-68
2022/11/13 09:10:25;;;;;;;16.87;10.70;;;10.60;99.90;;;;;;5058499;28;20201;-68
2022/11/13 09:12:57;;;;;;;14.97;9.90;;;10.60;99.90;;;;;;5052703;28;20249;-67
2022/11/13 09:15:25;;;;;;;15.30;9.77;;;10.50;99.90;;;;;;5063189;28;20194;-67
2022/11/13 09:17:55;;;;;;;14.47;9.87;;;10.50;99.90;;;;;;5064446;28;20238;-68
2022/11/13 09:20:22;;;;;;;12.90;8.53;;;10.50;99.90;;;;;;5064710;28;20265;-69
2022/11/13 09:22:49;;;;;;;11.20;7.87;;;10.50;99.90;;;;;;5065589;28;20580;-69
2022/11/13 09:25:16;;;;;;;13.90;8.93;;;10.40;99.90;;;;;;5068321;28;20206;-69
2022/11/13 09:27:42;;;;;;;14.10;9.53;;;10.40;99.90;;;;;;5051997;28;20210;-67
2022/11/13 09:30:10;;;;;;;12.03;8.17;;;10.40;99.90;;;;;;5058949;28;20210;-65
2022/11/13 09:32:38;;;;;;;12.63;8.50;;;10.40;99.90;;;;;;5047780;28;20647;-67
2022/11/13 09:35:06;;;;;;;12.73;7.97;;;10.40;99.90;;;;;;5055261;28;20213;-69
2022/11/13 09:37:33;;;;;;;11.93;8.23;;;10.50;99.90;;;;;;5060254;28;20222;-66
2022/11/13 09:40:00;;;;;;;10.63;8.13;;;10.50;99.90;;;;;;5049041;28;20576;-67
2022/11/13 09:42:28;;;;;;;10.03;7.57;;;10.60;99.90;;;;;;5046048;28;20197;-67
2022/11/13 09:45:00;;;;;;;10.90;6.90;;;10.60;99.90;;;;;;5050450;28;20206;-68
2022/11/13 09:47:33;;;;;;;10.70;7.43;;;10.60;99.90;;;;;;5052016;28;20201;-66
2022/11/13 09:50:05;;;;;;;9.90;6.37;;;10.60;99.90;;;;;;5052897;28;20198;-72
2022/11/13 09:52:36;;;;;;;8.83;6.70;;;10.60;99.90;;;;;;5053654;28;20205;-66
2022/11/13 09:55:04;;;;;;;8.33;6.00;;;10.70;99.90;;;;;;5054299;28;20676;-68
2022/11/13 09:57:37;;;;;;;8.30;5.80;;;10.70;99.90;;;;;;5055174;28;20458;-68
2022/11/13 10:00:10;;;;;;;9.80;6.60;;;10.70;99.90;;;;;;5060018;28;20222;-68
2022/11/13 10:02:48;;;;;;;9.47;6.30;;;10.70;99.90;;;;;;5049179;28;20205;-68
2022/11/13 10:05:23;;;;;;;7.70;5.73;;;10.70;99.90;;;;;;5050335;28;20214;-69
2022/11/13 10:07:57;;;;;;;7.23;5.30;;;10.70;99.90;;;;;;5052330;28;20271;-68
2022/11/13 10:10:47;;;;;;;8.13;6.03;;;10.80;99.90;;;;;;5040741;28;20228;-68
2022/11/13 10:13:18;;;;;;;10.43;6.90;;;10.80;99.90;;;;;;5051446;28;20233;-70
2022/11/13 10:15:51;;;;;;;10.33;6.73;;;10.70;99.90;;;;;;5047590;28;20565;-69
2022/11/13 10:18:21;;;;;;;9.80;6.70;;;10.80;99.90;;;;;;5053836;28;20210;-69
2022/11/13 10:20:56;;;;;;;12.93;7.13;;;10.70;99.90;;;;;;5054511;28;20697;-68
2022/11/13 10:23:28;;;;;;;12.53;8.10;;;10.70;99.90;;;;;;5061236;28;20190;-68
2022/11/13 10:26:00;;;;;;;10.23;6.50;;;10.80;99.90;;;;;;5054893;28;20202;-74
2022/11/13 10:28:27;;;;;;;10.17;6.30;;;10.80;99.90;;;;;;5051897;28;20259;-67
2022/11/13 10:30:54;;;;;;;8.53;5.87;;;10.80;99.90;;;;;;5044805;28;20216;-68
2022/11/13 10:33:22;;;;;;;9.23;6.50;;;10.90;99.90;;;;;;5049924;28;20677;-69
2022/11/13 10:35:56;;;;;;;8.90;6.50;;;10.80;99.90;;;;;;5058134;28;20630;-68
2022/11/13 10:38:27;;;;;;;10.30;6.10;;;10.80;99.90;;;;;;5052182;28;20247;-68
2022/11/13 10:41:06;;;;;;;9.37;6.23;;;10.70;99.90;;;;;;5054860;28;20252;-69
2022/11/13 10:43:33;;;;;;;9.27;6.00;;;10.80;99.90;;;;;;5051222;28;20232;-68
2022/11/13 10:46:03;;;;;;;10.87;7.07;;;10.80;99.90;;;;;;5054024;28;20293;-69
2022/11/13 10:48:32;;;;;;;11.30;7.10;;;10.80;99.90;;;;;;5053532;28;20201;-69
2022/11/13 10:51:03;;;;;;;10.80;7.07;;;10.70;99.90;;;;;;5055550;28;20574;-69
2022/11/13 10:53:38;;;;;;;11.53;7.00;;;10.70;99.90;;;;;;5051969;28;20555;-68
2022/11/13 10:56:20;;;;;;;10.77;7.17;;;10.80;99.90;;;;;;5054034;28;20208;-69
2022/11/13 10:59:03;;;;;;;10.93;7.67;;;10.80;99.90;;;;;;5055066;28;20609;-68
2022/11/13 11:01:30;;;;;;;10.40;6.90;;;10.80;99.90;;;;;;5051085;28;20647;-69
2022/11/13 11:03:57;;;;;;;11.60;8.00;;;10.90;99.90;;;;;;5050298;28;20968;-70
2022/11/13 11:06:34;;;;;;;12.43;7.27;;;10.90;99.90;;;;;;5045723;28;20677;-68
2022/11/13 11:09:16;;;;;;;12.97;7.63;;;10.80;99.90;;;;;;5048497;28;20207;-69
2022/11/13 11:14:37;;;;;;;10.90;7.40;;;10.90;99.90;;;;;;5052474;28;20339;-70
2022/11/13 11:17:06;;;;;;;10.13;7.13;;;10.90;99.90;;;;;;5064695;28;20818;-73
2022/11/13 11:19:37;;;;;;;12.57;7.17;;;10.90;99.90;;;;;;5047712;28;20276;-70
2022/11/13 11:22:13;;;;;;;12.70;7.53;;;10.90;99.90;;;;;;5049256;28;20233;-69
2022/11/13 11:24:46;;;;;;;11.30;6.80;;;10.80;99.90;;;;;;5049127;28;20213;-69
2022/11/13 11:27:21;;;;;;;13.03;7.80;;;10.80;99.90;;;;;;5054383;28;20193;-70
2022/11/13 11:29:53;;;;;;;11.67;7.53;;;10.80;99.90;;;;;;5059415;28;20578;-71
2022/11/13 11:32:25;;;;;;;11.47;7.20;;;10.90;99.90;;;;;;5055388;28;21415;-70
2022/11/13 11:34:58;;;;;;;13.03;7.50;;;10.80;99.90;;;;;;5059661;28;20214;-70
2022/11/13 11:37:33;;;;;;;11.47;7.53;;;10.80;99.90;;;;;;5060052;28;20221;-71
2022/11/13 11:40:04;;;;;;;11.83;8.10;;;10.80;99.90;;;;;;5065126;28;20188;-71
2022/11/13 11:42:41;;;;;;;11.83;7.43;;;10.90;99.90;;;;;;5055284;28;20200;-70
2022/11/13 11:45:15;;;;;;;14.17;8.07;;;10.90;99.90;;;;;;5063078;28;20219;-70
2022/11/13 11:47:43;;;;;;;11.37;8.17;;;10.90;99.90;;;;;;5070478;28;20223;-69
2022/11/13 11:50:14;;;;;;;13.77;8.70;;;10.90;99.90;;;;;;5058959;28;20214;-69
2022/11/13 11:52:55;;;;;;;12.53;7.80;;;10.90;99.90;;;;;;5056979;28;20206;-68
2022/11/13 11:55:48;;;;;;;13.83;8.80;;;10.90;99.90;;;;;;5045692;28;20206;-70
2022/11/13 11:58:28;;;;;;;11.80;8.17;;;10.80;99.90;;;;;;5055670;28;20221;-72
2022/11/13 12:01:03;;;;;;;12.23;7.77;;;10.90;99.90;;;;;;5055792;28;20740;-69
2022/11/13 12:04:06;;;;;;;11.97;8.57;;;10.90;99.90;;;;;;5062108;28;20197;-69
2022/11/13 12:06:45;;;;;;;13.87;8.30;;;10.90;99.90;;;;;;5060471;28;20212;-69
2022/11/13 12:09:23;;;;;;;13.73;7.60;;;10.80;99.90;;;;;;5063751;28;20339;-67
2022/11/13 12:11:59;;;;;;;10.53;7.60;;;10.90;99.90;;;;;;5063026;28;20295;-68
2022/11/13 12:14:36;;;;;;;11.83;8.17;;;10.90;99.90;;;;;;5065331;28;20395;-68
2022/11/13 12:17:22;;;;;;;11.10;7.17;;;10.90;99.90;;;;;;5063987;28;20225;-68
2022/11/13 12:19:58;;;;;;;11.27;7.20;;;10.90;99.90;;;;;;5060990;28;20295;-69
2022/11/13 12:22:32;;;;;;;12.27;7.57;;;10.90;99.90;;;;;;5062278;28;20591;-68
2022/11/13 12:25:12;;;;;;;11.83;7.37;;;10.90;99.90;;;;;;5062714;28;20572;-69
2022/11/13 12:27:43;;;;;;;10.13;6.97;;;10.90;99.90;;;;;;5065599;28;20194;-69
2022/11/13 12:30:16;;;;;;;11.17;7.10;;;10.90;99.90;;;;;;5068286;28;20796;-69
2022/11/13 12:32:57;;;;;;;11.33;7.30;;;10.90;99.90;;;;;;5064482;28;20639;-68
2022/11/13 12:35:26;;;;;;;10.67;7.20;;;10.90;99.90;;;;;;5065307;28;20265;-68
2022/11/13 12:37:57;;;;;;;11.13;8.00;;;10.90;99.90;;;;;;5068646;28;20240;-68
2022/11/13 12:40:31;;;;;;;11.27;8.23;;;10.90;99.90;;;;;;5067995;28;20202;-68
2022/11/13 12:43:19;;;;;;;11.40;7.87;;;10.90;99.90;;;;;;5066497;28;20202;-68
2022/11/13 12:45:51;;;;;;;11.87;8.03;;;10.90;99.90;;;;;;5064959;28;20202;-68
2022/11/13 12:48:33;;;;;;;12.03;8.40;;;10.90;99.90;;;;;;5066601;28;20194;-68
2022/11/13 12:51:02;;;;;;;13.97;9.13;;;10.80;99.90;;;;;;5065145;28;20263;-69